createdAt,value
2022-12-08T00:01:28.565Z,2.10
2022-12-08T00:03:59.250Z,2.20
2022-12-08T00:06:52.624Z,2.10
2022-12-08T00:09:37.864Z,2.10
2022-12-08T00:12:10.148Z,2.10
2022-12-08T00:14:41.213Z,2.20
2022-12-08T00:17:11.410Z,2.20
2022-12-08T00:19:42.241Z,2.20
2022-12-08T00:22:10.554Z,2.10
2022-12-08T00:24:41.879Z,2.10
2022-12-08T00:27:10.739Z,2.10
2022-12-08T00:29:38.899Z,2.10
2022-12-08T00:32:06.705Z,2.10
2022-12-08T00:34:33.917Z,2.10
2022-12-08T00:37:04.663Z,2.10
2022-12-08T00:39:31.480Z,2.10
2022-12-08T00:42:14.729Z,2.10
2022-12-08T00:44:44.350Z,2.10
2022-12-08T00:47:11.858Z,2.10
2022-12-08T00:49:38.791Z,2.10
2022-12-08T00:52:07.250Z,2.10
2022-12-08T00:54:34.382Z,2.10
2022-12-08T00:57:03.046Z,2.10
2022-12-08T00:59:29.813Z,2.10
2022-12-08T01:02:00.105Z,2.10
2022-12-08T01:04:28.043Z,2.10
2022-12-08T01:06:56.024Z,2.10
2022-12-08T01:09:22.860Z,2.10
2022-12-08T01:11:49.724Z,2.10
2022-12-08T01:14:17.756Z,2.10
2022-12-08T01:16:44.614Z,2.10
2022-12-08T01:19:15.431Z,2.10
2022-12-08T01:21:43.214Z,2.10
2022-12-08T01:24:13.875Z,2.10
2022-12-08T01:26:41.102Z,2.10
2022-12-08T01:29:08.117Z,2.10
2022-12-08T01:31:35.094Z,2.10
2022-12-08T01:34:03.415Z,2.10
2022-12-08T01:36:32.755Z,2.10
2022-12-08T01:39:02.098Z,2.10
2022-12-08T01:41:32.363Z,2.10
2022-12-08T01:44:10.853Z,2.10
2022-12-08T01:46:39.995Z,2.20
2022-12-08T01:49:10.901Z,2.10
2022-12-08T01:52:01.622Z,2.20
2022-12-08T01:54:35.114Z,2.20
2022-12-08T01:57:18.461Z,2.10
2022-12-08T01:59:54.351Z,2.10
2022-12-08T02:02:24.223Z,2.20
2022-12-08T02:04:52.176Z,2.10
2022-12-08T02:07:21.778Z,2.10
2022-12-08T02:09:48.638Z,2.20
2022-12-08T02:12:16.762Z,2.10
2022-12-08T02:14:44.807Z,2.10
2022-12-08T02:17:49.875Z,2.20
2022-12-08T02:20:23.922Z,2.20
2022-12-08T02:23:01.455Z,2.20
2022-12-08T02:26:10.810Z,2.10
2022-12-08T02:29:07.316Z,2.10
2022-12-08T02:31:43.821Z,2.10
2022-12-08T02:34:34.988Z,2.10
2022-12-08T02:37:18.174Z,2.00
2022-12-08T02:40:03.794Z,1.90
2022-12-08T02:42:40.289Z,2.00
2022-12-08T02:45:13.663Z,2.00
2022-12-08T02:47:41.278Z,1.90
2022-12-08T02:50:08.484Z,1.90
2022-12-08T02:52:40.372Z,1.90
2022-12-08T02:55:14.839Z,1.90
2022-12-08T02:58:06.161Z,1.90
2022-12-08T03:01:03.397Z,1.90
2022-12-08T03:04:13.755Z,1.90
2022-12-08T03:07:04.818Z,1.90
2022-12-08T03:10:00.360Z,1.90
2022-12-08T03:12:28.296Z,1.90
2022-12-08T03:14:59.908Z,1.90
2022-12-08T03:17:32.226Z,1.90
2022-12-08T03:20:07.494Z,1.90
2022-12-08T03:22:34.615Z,1.90
2022-12-08T03:25:03.539Z,1.90
2022-12-08T03:27:32.028Z,1.90
2022-12-08T03:30:00.224Z,1.90
2022-12-08T03:32:35.179Z,1.90
2022-12-08T03:35:10.871Z,1.90
2022-12-08T03:37:40.203Z,1.90
2022-12-08T03:40:09.713Z,1.90
2022-12-08T03:42:37.743Z,1.90
2022-12-08T03:45:05.488Z,2.00
2022-12-08T03:47:33.486Z,2.00
2022-12-08T03:50:01.752Z,1.90
2022-12-08T03:52:29.900Z,2.00
2022-12-08T03:54:56.655Z,2.00
2022-12-08T03:57:23.472Z,2.00
2022-12-08T03:59:52.139Z,2.00
2022-12-08T04:02:19.065Z,2.00
2022-12-08T04:04:47.112Z,2.00
2022-12-08T04:07:15.541Z,2.00
2022-12-08T04:09:44.897Z,2.00
2022-12-08T04:12:11.657Z,2.00
2022-12-08T04:14:39.635Z,2.00
2022-12-08T04:17:06.386Z,2.00
2022-12-08T04:19:34.327Z,2.00
2022-12-08T04:22:02.189Z,2.00
2022-12-08T04:24:29.070Z,2.00
2022-12-08T04:26:57.194Z,2.00
2022-12-08T04:29:24.048Z,2.00
2022-12-08T04:31:52.284Z,2.00
2022-12-08T04:34:20.653Z,2.00
2022-12-08T04:36:49.274Z,2.00
2022-12-08T04:39:17.349Z,2.00
2022-12-08T04:41:44.121Z,2.10
2022-12-08T04:44:14.270Z,2.00
2022-12-08T04:46:43.788Z,2.10
2022-12-08T04:49:11.945Z,2.00
2022-12-08T04:51:38.696Z,2.00
2022-12-08T04:54:05.625Z,2.10
2022-12-08T04:56:32.430Z,2.00
2022-12-08T04:58:59.165Z,2.00
2022-12-08T05:01:26.079Z,2.10
2022-12-08T05:03:54.302Z,2.00
2022-12-08T05:06:21.753Z,2.00
2022-12-08T05:08:48.567Z,2.00
2022-12-08T05:11:15.495Z,2.00
2022-12-08T05:13:43.428Z,2.00
2022-12-08T05:16:16.103Z,2.00
2022-12-08T05:18:44.631Z,2.10
2022-12-08T05:21:11.777Z,2.10
2022-12-08T05:23:40.430Z,2.10
2022-12-08T05:26:07.588Z,2.10
2022-12-08T05:28:43.639Z,2.10
2022-12-08T05:31:13.835Z,2.10
2022-12-08T05:33:41.872Z,2.10
2022-12-08T05:36:09.915Z,2.10
2022-12-08T05:38:37.080Z,2.10
2022-12-08T05:41:05.703Z,2.10
2022-12-08T05:43:34.529Z,2.10
2022-12-08T05:46:03.206Z,2.10
2022-12-08T05:48:31.492Z,2.10
2022-12-08T05:50:58.295Z,2.10
2022-12-08T05:53:25.213Z,2.10
2022-12-08T05:55:53.510Z,2.10
2022-12-08T05:58:22.393Z,2.10
2022-12-08T06:00:50.375Z,2.10
2022-12-08T06:03:19.626Z,2.10
2022-12-08T06:05:48.342Z,2.10
2022-12-08T06:08:17.160Z,2.10
2022-12-08T06:10:45.337Z,2.10
2022-12-08T06:13:12.788Z,2.10
2022-12-08T06:15:41.132Z,2.10
2022-12-08T06:18:09.540Z,2.10
2022-12-08T06:20:38.770Z,2.10
2022-12-08T06:23:05.531Z,2.10
2022-12-08T06:25:32.343Z,2.10
2022-12-08T06:27:59.230Z,2.10
2022-12-08T06:30:28.608Z,2.10
2022-12-08T06:32:57.056Z,2.10
2022-12-08T06:35:25.057Z,2.10
2022-12-08T06:37:52.588Z,2.10
2022-12-08T06:40:19.952Z,2.10
2022-12-08T06:42:48.616Z,2.10
2022-12-08T06:45:18.741Z,2.10
2022-12-08T06:47:46.727Z,2.10
2022-12-08T06:50:14.606Z,2.10
2022-12-08T06:52:55.752Z,2.10
2022-12-08T06:55:57.380Z,2.10
2022-12-08T06:58:15.794Z,2.10
2022-12-08T07:00:44.026Z,2.10
2022-12-08T07:03:12.388Z,2.10
2022-12-08T07:05:41.169Z,2.10
2022-12-08T07:08:08.970Z,2.10
2022-12-08T07:10:38.025Z,2.10
2022-12-08T07:13:06.748Z,2.10
2022-12-08T07:15:34.079Z,2.10
2022-12-08T07:18:00.973Z,2.10
2022-12-08T07:20:28.065Z,2.10
2022-12-08T07:22:55.300Z,2.10
2022-12-08T07:25:24.088Z,2.10
2022-12-08T07:27:51.743Z,2.10
2022-12-08T07:30:20.183Z,2.10
2022-12-08T07:32:47.165Z,2.10
2022-12-08T07:35:15.759Z,2.10
2022-12-08T07:37:42.819Z,2.10
2022-12-08T07:40:11.667Z,2.10
2022-12-08T07:42:39.816Z,2.10
2022-12-08T07:45:07.267Z,2.10
2022-12-08T07:47:35.277Z,2.10
2022-12-08T07:50:02.294Z,2.10
2022-12-08T07:52:30.477Z,2.10
2022-12-08T07:54:57.306Z,2.10
2022-12-08T07:57:24.101Z,2.10
2022-12-08T07:59:52.436Z,2.10
2022-12-08T08:02:24.787Z,2.10
2022-12-08T08:04:55.206Z,2.20
2022-12-08T08:07:22.115Z,2.20
2022-12-08T08:09:48.915Z,2.20
2022-12-08T08:12:31.252Z,2.20
2022-12-08T08:14:59.916Z,2.20
2022-12-08T08:17:26.991Z,2.20
2022-12-08T08:19:55.972Z,2.20
2022-12-08T08:22:22.752Z,2.20
2022-12-08T08:24:51.752Z,2.20
2022-12-08T08:27:18.861Z,2.20
2022-12-08T08:29:46.969Z,2.30
2022-12-08T08:32:13.865Z,2.20
2022-12-08T08:34:41.918Z,2.20
2022-12-08T08:37:09.134Z,2.30
2022-12-08T08:39:37.962Z,2.20
2022-12-08T08:42:05.995Z,2.20
2022-12-08T08:44:33.956Z,2.30
2022-12-08T08:47:00.730Z,2.30
2022-12-08T08:49:27.655Z,2.30
2022-12-08T08:51:56.013Z,2.30
2022-12-08T08:54:26.318Z,2.30
2022-12-08T08:56:53.076Z,2.30
2022-12-08T08:59:19.893Z,2.30
2022-12-08T09:01:46.762Z,2.30
2022-12-08T09:04:13.853Z,2.20
2022-12-08T09:06:44.014Z,2.40
2022-12-08T09:09:13.752Z,2.40
2022-12-08T09:11:40.880Z,2.40
2022-12-08T09:14:07.747Z,2.40
2022-12-08T09:16:41.767Z,2.40
2022-12-08T09:19:11.018Z,2.40
2022-12-08T09:21:39.765Z,2.40
2022-12-08T09:24:08.134Z,2.40
2022-12-08T09:26:36.065Z,2.40
2022-12-08T09:29:02.915Z,2.40
2022-12-08T09:31:29.713Z,2.50
2022-12-08T09:33:59.156Z,2.50
2022-12-08T09:36:27.466Z,2.50
2022-12-08T09:38:56.202Z,2.40
2022-12-08T09:41:37.513Z,2.50
2022-12-08T09:44:38.618Z,2.50
2022-12-08T09:47:13.751Z,2.50
2022-12-08T09:49:47.102Z,2.50
2022-12-08T09:52:27.873Z,2.50
2022-12-08T09:55:00.729Z,2.50
2022-12-08T09:57:31.886Z,2.50
2022-12-08T10:00:04.442Z,2.50
2022-12-08T10:02:32.216Z,2.50
2022-12-08T10:04:59.627Z,2.50
2022-12-08T10:08:03.515Z,2.50
2022-12-08T10:10:41.691Z,2.50
2022-12-08T10:13:14.956Z,2.50
2022-12-08T10:16:02.076Z,2.50
2022-12-08T10:18:35.969Z,2.50
2022-12-08T10:21:19.692Z,2.60
2022-12-08T10:23:56.527Z,2.60
2022-12-08T10:26:25.202Z,2.60
2022-12-08T10:28:52.130Z,2.60
2022-12-08T10:31:24.281Z,2.60
2022-12-08T10:34:01.599Z,2.60
2022-12-08T10:36:56.432Z,2.60
2022-12-08T10:39:41.078Z,2.60
2022-12-08T10:42:23.138Z,2.70
2022-12-08T10:44:53.954Z,2.70
2022-12-08T10:47:23.514Z,2.70
2022-12-08T10:50:20.166Z,2.70
2022-12-08T10:52:59.799Z,2.80
2022-12-08T10:55:28.264Z,2.70
2022-12-08T10:57:56.536Z,2.80
2022-12-08T11:00:28.062Z,2.80
2022-12-08T11:03:03.247Z,2.80
2022-12-08T11:05:36.206Z,2.80
2022-12-08T11:08:05.875Z,2.80
2022-12-08T11:10:42.626Z,2.80
2022-12-08T11:13:41.698Z,2.80
2022-12-08T11:16:11.716Z,2.80
2022-12-08T11:18:55.655Z,2.80
2022-12-08T11:21:35.692Z,2.80
2022-12-08T11:24:19.148Z,2.80
2022-12-08T11:26:54.802Z,2.80
2022-12-08T11:29:23.487Z,2.80
2022-12-08T11:31:58.072Z,2.80
2022-12-08T11:34:39.063Z,2.80
2022-12-08T11:37:13.544Z,2.80
2022-12-08T11:39:49.970Z,2.80
2022-12-08T11:42:22.495Z,2.80
2022-12-08T11:44:59.105Z,2.80
2022-12-08T11:47:35.703Z,2.80
2022-12-08T11:50:22.009Z,2.80
2022-12-08T11:52:52.955Z,2.80
2022-12-08T11:55:45.208Z,2.80
2022-12-08T11:58:19.385Z,2.80
2022-12-08T12:00:46.494Z,2.90
2022-12-08T12:03:30.424Z,2.80
2022-12-08T12:06:23.953Z,2.80
2022-12-08T12:09:26.855Z,2.80
2022-12-08T12:12:16.870Z,2.80
2022-12-08T12:15:03.831Z,2.80
2022-12-08T12:17:57.928Z,2.80
2022-12-08T12:20:38.621Z,2.80
2022-12-08T12:23:16.357Z,2.80
2022-12-08T12:25:55.374Z,2.80
2022-12-08T12:28:26.707Z,2.80
2022-12-08T12:31:06.855Z,2.80
2022-12-08T12:33:36.178Z,2.90
2022-12-08T12:36:09.232Z,2.90
2022-12-08T12:39:05.330Z,2.90
2022-12-08T12:41:45.494Z,2.80
2022-12-08T12:44:12.222Z,2.90
2022-12-08T12:46:46.419Z,2.90
2022-12-08T12:49:43.666Z,2.90
2022-12-08T12:52:25.005Z,2.90
2022-12-08T12:54:53.090Z,2.90
2022-12-08T12:57:19.818Z,2.80
2022-12-08T12:59:55.677Z,2.80
2022-12-08T13:02:31.116Z,2.80
2022-12-08T13:05:20.775Z,2.80
2022-12-08T13:07:51.530Z,2.70
2022-12-08T13:10:32.780Z,2.70
2022-12-08T13:13:12.590Z,2.60
2022-12-08T13:15:48.037Z,2.50
2022-12-08T13:18:37.636Z,2.50
2022-12-08T13:21:08.693Z,2.40
2022-12-08T13:23:38.570Z,2.40
2022-12-08T13:26:14.316Z,2.30
2022-12-08T13:29:07.048Z,2.40
2022-12-08T13:31:54.662Z,2.40
2022-12-08T13:34:39.382Z,2.40
2022-12-08T13:37:18.876Z,2.40
2022-12-08T13:39:59.277Z,2.30
2022-12-08T13:42:46.900Z,2.30
2022-12-08T13:45:58.922Z,2.30
2022-12-08T13:49:09.682Z,2.30
2022-12-08T13:55:25.917Z,2.20
2022-12-08T13:57:30.437Z,2.20
2022-12-08T14:00:09.248Z,2.20
2022-12-08T14:02:47.746Z,2.10
2022-12-08T14:05:30.087Z,2.10
2022-12-08T14:08:57.065Z,2.10
2022-12-08T14:11:33.666Z,1.90
2022-12-08T14:14:53.696Z,1.90
2022-12-08T14:17:13.932Z,1.90
2022-12-08T14:19:53.581Z,1.80
2022-12-08T14:22:20.518Z,1.70
2022-12-08T14:24:53.840Z,1.70
2022-12-08T14:27:26.943Z,1.70
2022-12-08T14:30:01.724Z,1.60
2022-12-08T14:32:34.332Z,1.60
2022-12-08T14:35:09.180Z,1.60
2022-12-08T14:37:42.389Z,1.40
2022-12-08T14:40:23.230Z,1.60
2022-12-08T14:42:53.390Z,1.60
2022-12-08T14:45:21.336Z,1.60
2022-12-08T14:47:51.095Z,1.60
2022-12-08T14:50:46.171Z,1.60
2022-12-08T14:53:18.062Z,1.60
2022-12-08T14:55:48.276Z,1.50
2022-12-08T14:58:28.411Z,1.60
2022-12-08T15:00:59.569Z,1.50
2022-12-08T15:03:31.125Z,1.50
2022-12-08T15:06:06.409Z,1.50
2022-12-08T15:08:52.316Z,1.50
2022-12-08T15:11:23.047Z,1.50
2022-12-08T15:13:53.767Z,1.50
2022-12-08T15:16:42.795Z,1.50
2022-12-08T15:19:29.674Z,1.50
2022-12-08T15:22:07.852Z,1.50
2022-12-08T15:24:35.616Z,1.50
2022-12-08T15:27:04.290Z,1.50
2022-12-08T15:29:31.309Z,1.50
2022-12-08T15:32:01.521Z,1.50
2022-12-08T15:34:28.464Z,1.50
2022-12-08T15:36:57.090Z,1.50
2022-12-08T15:39:34.240Z,1.50
2022-12-08T15:42:09.989Z,1.50
2022-12-08T15:44:37.358Z,1.40
2022-12-08T15:47:06.656Z,1.40
2022-12-08T15:49:36.396Z,1.40
2022-12-08T15:52:11.296Z,1.40
2022-12-08T15:54:38.840Z,1.40
2022-12-08T15:57:35.972Z,1.50
2022-12-08T16:00:04.881Z,1.50
2022-12-08T16:03:04.130Z,1.50
2022-12-08T16:08:44.714Z,1.50
2022-12-08T16:15:01.430Z,1.50
2022-12-08T16:16:57.088Z,1.40
2022-12-08T16:19:23.908Z,1.40
2022-12-08T16:24:37.592Z,1.40
2022-12-08T16:27:59.414Z,1.50
2022-12-08T16:29:57.904Z,1.40
2022-12-08T16:32:27.310Z,1.40
2022-12-08T16:34:54.720Z,1.40
2022-12-08T16:37:24.392Z,1.40
2022-12-08T16:39:54.023Z,1.40
2022-12-08T16:42:43.301Z,1.40
2022-12-08T16:45:33.119Z,1.40
2022-12-08T16:48:01.345Z,1.40
2022-12-08T16:50:30.696Z,1.30
2022-12-08T16:53:04.664Z,1.30
2022-12-08T16:55:34.175Z,1.30
2022-12-08T16:58:02.626Z,1.30
2022-12-08T17:00:31.588Z,1.30
2022-12-08T17:02:58.925Z,1.30
2022-12-08T17:05:28.630Z,1.20
2022-12-08T17:07:55.753Z,1.30
2022-12-08T17:10:29.198Z,1.20
2022-12-08T17:12:57.536Z,1.30
2022-12-08T17:15:27.657Z,1.30
2022-12-08T17:17:54.579Z,1.20
2022-12-08T17:20:27.003Z,1.20
2022-12-08T17:23:00.177Z,1.20
2022-12-08T17:25:28.469Z,1.20
2022-12-08T17:27:56.282Z,1.20
2022-12-08T17:30:23.121Z,1.20
2022-12-08T17:32:52.752Z,1.20
2022-12-08T17:35:22.488Z,1.20
2022-12-08T17:37:49.428Z,1.20
2022-12-08T17:40:17.452Z,1.20
2022-12-08T17:42:45.733Z,1.20
2022-12-08T17:45:13.804Z,1.20
2022-12-08T17:47:40.653Z,1.20
2022-12-08T17:50:08.511Z,1.20
2022-12-08T17:52:35.566Z,1.20
2022-12-08T17:55:05.296Z,1.20
2022-12-08T17:57:32.079Z,1.20
2022-12-08T18:00:00.137Z,1.20
2022-12-08T18:02:28.250Z,1.20
2022-12-08T18:04:56.556Z,1.20
2022-12-08T18:07:23.340Z,1.20
2022-12-08T18:09:52.756Z,1.20
2022-12-08T18:12:23.560Z,1.20
2022-12-08T18:14:51.643Z,1.20
2022-12-08T18:17:21.938Z,1.10
2022-12-08T18:19:48.850Z,1.20
2022-12-08T18:22:17.722Z,1.10
2022-12-08T18:24:44.680Z,1.10
2022-12-08T18:27:11.643Z,1.10
2022-12-08T18:29:39.980Z,1.10
2022-12-08T18:32:08.306Z,1.10
2022-12-08T18:34:35.288Z,1.10
2022-12-08T18:37:03.631Z,1.10
2022-12-08T18:39:32.815Z,1.10
2022-12-08T18:42:02.519Z,1.10
2022-12-08T18:44:30.566Z,1.10
2022-12-08T18:46:57.449Z,1.10
2022-12-08T18:49:26.400Z,1.10
2022-12-08T18:51:54.391Z,1.10
2022-12-08T18:54:37.115Z,1.10
2022-12-08T18:57:09.737Z,1.10
2022-12-08T18:59:37.765Z,1.30
2022-12-08T19:02:04.656Z,1.10
2022-12-08T19:04:35.946Z,1.10
2022-12-08T19:07:07.703Z,1.10
2022-12-08T19:09:35.678Z,1.10
2022-12-08T19:12:02.648Z,1.10
2022-12-08T19:14:30.488Z,1.10
2022-12-08T19:16:58.613Z,1.10
2022-12-08T19:19:26.608Z,1.10
2022-12-08T19:21:55.325Z,1.10
2022-12-08T19:24:24.753Z,1.10
2022-12-08T19:26:51.823Z,1.00
2022-12-08T19:29:19.966Z,1.00
2022-12-08T19:31:46.928Z,1.00
2022-12-08T19:34:14.301Z,1.00
2022-12-08T19:36:42.960Z,1.00
2022-12-08T19:39:34.668Z,1.00
2022-12-08T19:42:23.452Z,1.00
2022-12-08T19:44:54.541Z,1.00
2022-12-08T19:47:27.219Z,1.00
2022-12-08T19:50:15.839Z,1.00
2022-12-08T19:52:43.520Z,1.00
2022-12-08T19:55:10.759Z,1.00
2022-12-08T19:57:38.922Z,1.00
2022-12-08T20:00:08.574Z,1.00
2022-12-08T20:02:37.303Z,1.10
2022-12-08T20:05:05.724Z,1.00
2022-12-08T20:07:34.029Z,1.00
2022-12-08T20:10:06.921Z,1.00
2022-12-08T20:12:35.127Z,1.00
2022-12-08T20:15:04.070Z,1.00
2022-12-08T20:17:30.871Z,1.00
2022-12-08T20:20:02.589Z,1.00
2022-12-08T20:22:33.896Z,1.00
2022-12-08T20:25:09.630Z,1.00
2022-12-08T20:27:39.960Z,1.00
2022-12-08T20:30:15.065Z,1.00
2022-12-08T20:32:45.628Z,1.00
2022-12-08T20:35:12.887Z,1.00
2022-12-08T20:37:42.418Z,1.00
2022-12-08T20:40:09.653Z,1.00
2022-12-08T20:42:37.940Z,1.00
2022-12-08T20:45:09.100Z,1.00
2022-12-08T20:47:36.936Z,1.00
2022-12-08T20:50:06.992Z,1.00
2022-12-08T20:52:34.143Z,1.00
2022-12-08T20:55:03.889Z,0.90
2022-12-08T20:57:30.907Z,0.90
2022-12-08T20:59:59.221Z,1.00
2022-12-08T21:02:26.921Z,1.00
2022-12-08T21:04:55.095Z,1.00
2022-12-08T21:07:22.200Z,0.90
2022-12-08T21:09:51.163Z,1.00
2022-12-08T21:12:19.348Z,1.00
2022-12-08T21:14:47.475Z,0.90
2022-12-08T21:17:14.523Z,1.00
2022-12-08T21:19:45.096Z,1.00
2022-12-08T21:22:14.299Z,1.00
2022-12-08T21:24:41.277Z,1.00
2022-12-08T21:27:09.358Z,1.00
2022-12-08T21:29:36.159Z,1.00
2022-12-08T21:32:03.210Z,1.00
2022-12-08T21:34:31.905Z,1.00
2022-12-08T21:36:59.102Z,1.00
2022-12-08T21:39:27.130Z,1.00
2022-12-08T21:42:12.780Z,1.00
2022-12-08T21:44:41.191Z,1.00
2022-12-08T21:47:09.429Z,1.00
2022-12-08T21:49:37.542Z,1.00
2022-12-08T21:52:04.621Z,1.00
2022-12-08T21:54:33.172Z,1.00
2022-12-08T21:57:02.384Z,1.00
2022-12-08T21:59:29.335Z,1.00
2022-12-08T22:01:56.395Z,1.00
2022-12-08T22:04:25.080Z,1.00
2022-12-08T22:06:54.493Z,1.00
2022-12-08T22:09:22.795Z,1.00
2022-12-08T22:11:49.868Z,1.00
2022-12-08T22:14:16.778Z,1.00
2022-12-08T22:16:45.402Z,1.00
2022-12-08T22:19:12.702Z,1.00
2022-12-08T22:21:39.994Z,1.00
2022-12-08T22:24:08.339Z,1.00
2022-12-08T22:26:35.645Z,1.00
2022-12-08T22:29:04.473Z,1.00
2022-12-08T22:31:31.646Z,1.00
2022-12-08T22:34:00.170Z,1.00
2022-12-08T22:36:28.117Z,1.00
2022-12-08T22:38:55.763Z,1.00
2022-12-08T22:41:24.674Z,1.00
2022-12-08T22:43:51.718Z,1.00
2022-12-08T22:46:22.958Z,1.00
2022-12-08T22:48:52.542Z,1.00
2022-12-08T22:51:21.653Z,1.00
2022-12-08T22:53:48.580Z,1.00
2022-12-08T22:56:18.822Z,1.00
2022-12-08T22:58:47.489Z,1.00
2022-12-08T23:01:26.144Z,1.00
2022-12-08T23:03:54.519Z,0.90
2022-12-08T23:06:23.687Z,1.00
2022-12-08T23:08:50.706Z,1.00
2022-12-08T23:11:18.570Z,1.00
2022-12-08T23:13:47.597Z,1.00
2022-12-08T23:16:15.146Z,1.00
2022-12-08T23:18:44.991Z,1.00
2022-12-08T23:21:16.430Z,1.00
2022-12-08T23:23:44.517Z,1.00
2022-12-08T23:26:20.794Z,1.00
2022-12-08T23:28:49.777Z,1.00
2022-12-08T23:31:17.570Z,1.00
2022-12-08T23:33:48.280Z,1.00
2022-12-08T23:36:16.529Z,1.00
2022-12-08T23:38:45.655Z,0.90
2022-12-08T23:41:14.755Z,0.90
2022-12-08T23:43:50.963Z,1.00
2022-12-08T23:46:22.160Z,1.00
2022-12-08T23:48:50.595Z,1.00
2022-12-08T23:51:17.953Z,1.00
2022-12-08T23:53:46.979Z,1.00
2022-12-08T23:56:16.013Z,0.90
2022-12-08T23:58:45.944Z,0.90
